sensor_id;sensor_type;location;lat;lon;timestamp;pressure;altitude;pressure_sealevel;temperature;humidity
69836;BME280;57132;51.972;4.450;2022-09-21T00:00:23;102643.28;;;10.34;100.00
69836;BME280;57132;51.972;4.450;2022-09-21T00:02:49;102638.72;;;10.37;100.00
69836;BME280;57132;51.972;4.450;2022-09-21T00:05:14;102632.41;;;10.39;100.00
69836;BME280;57132;51.972;4.450;2022-09-21T00:07:41;102630.59;;;10.40;100.00
69836;BME280;57132;51.972;4.450;2022-09-21T00:10:06;102629.63;;;10.42;100.00
69836;BME280;57132;51.972;4.450;2022-09-21T00:12:31;102629.63;;;10.42;100.00
69836;BME280;57132;51.972;4.450;2022-09-21T00:14:57;102634.84;;;10.45;100.00
69836;BME280;57132;51.972;4.450;2022-09-21T00:17:22;102631.22;;;10.46;100.00
69836;BME280;57132;51.972;4.450;2022-09-21T00:19:48;102630.22;;;10.49;100.00
69836;BME280;57132;51.972;4.450;2022-09-21T00:22:19;102633.69;;;10.51;100.00
69836;BME280;57132;51.972;4.450;2022-09-21T00:24:45;102631.81;;;10.53;100.00
69836;BME280;57132;51.972;4.450;2022-09-21T00:27:10;102631.69;;;10.56;100.00
69836;BME280;57132;51.972;4.450;2022-09-21T00:29:35;102635.31;;;10.55;100.00
69836;BME280;57132;51.972;4.450;2022-09-21T00:32:01;102625.63;;;10.52;100.00
69836;BME280;57132;51.972;4.450;2022-09-21T00:34:26;102619.47;;;10.50;100.00
69836;BME280;57132;51.972;4.450;2022-09-21T00:36:51;102627.63;;;10.47;100.00
69836;BME280;57132;51.972;4.450;2022-09-21T00:39:17;102631.22;;;10.46;100.00
69836;BME280;57132;51.972;4.450;2022-09-21T00:41:45;102627.69;;;10.46;100.00
69836;BME280;57132;51.972;4.450;2022-09-21T00:46:38;102628.78;;;10.40;100.00
69836;BME280;57132;51.972;4.450;2022-09-21T00:49:04;102630.53;;;10.41;100.00
69836;BME280;57132;51.972;4.450;2022-09-21T00:51:29;102628.78;;;10.40;100.00
69836;BME280;57132;51.972;4.450;2022-09-21T00:53:57;102629.66;;;10.41;100.00
69836;BME280;57132;51.972;4.450;2022-09-21T00:56:24;102626.13;;;10.40;100.00
69836;BME280;57132;51.972;4.450;2022-09-21T00:58:50;102626.13;;;10.40;100.00
69836;BME280;57132;51.972;4.450;2022-09-21T01:01:19;102623.47;;;10.40;100.00
69836;BME280;57132;51.972;4.450;2022-09-21T01:03:45;102620.78;;;10.40;100.00
69836;BME280;57132;51.972;4.450;2022-09-21T01:06:14;102621.72;;;10.39;100.00
69836;BME280;57132;51.972;4.450;2022-09-21T01:08:40;102626.13;;;10.40;100.00
69836;BME280;57132;51.972;4.450;2022-09-21T01:11:13;102628.78;;;10.40;100.00
69836;BME280;57132;51.972;4.450;2022-09-21T01:25:01;102623.03;;;10.29;100.00
69836;BME280;57132;51.972;4.450;2022-09-21T01:27:34;102630.16;;;10.28;100.00
69836;BME280;57132;51.972;4.450;2022-09-21T01:30:15;102630.25;;;10.27;100.00
69836;BME280;57132;51.972;4.450;2022-09-21T01:32:55;102623.19;;;10.26;100.00
69836;BME280;57132;51.972;4.450;2022-09-21T01:35:25;102628.53;;;10.24;100.00
69836;BME280;57132;51.972;4.450;2022-09-21T01:37:54;102624.19;;;10.22;100.00
69836;BME280;57132;51.972;4.450;2022-09-21T01:40:26;102623.38;;;10.20;100.00
69836;BME280;57132;51.972;4.450;2022-09-21T01:42:52;102627.09;;;10.16;100.00
69836;BME280;57132;51.972;4.450;2022-09-21T01:45:19;102628.16;;;10.12;100.00
69836;BME280;57132;51.972;4.450;2022-09-21T01:47:48;102624.81;;;10.06;100.00
69836;BME280;57132;51.972;4.450;2022-09-21T01:50:13;102623.22;;;10.02;100.00
69836;BME280;57132;51.972;4.450;2022-09-21T01:52:51;102622.38;;;10.00;100.00
69836;BME280;57132;51.972;4.450;2022-09-21T01:55:20;102622.50;;;9.97;100.00
69836;BME280;57132;51.972;4.450;2022-09-21T01:57:53;102619.91;;;9.96;100.00
69836;BME280;57132;51.972;4.450;2022-09-21T02:00:20;102625.44;;;9.91;100.00
69836;BME280;57132;51.972;4.450;2022-09-21T02:05:11;102615.91;;;9.84;100.00
69836;BME280;57132;51.972;4.450;2022-09-21T02:07:37;102616.91;;;9.81;100.00
69836;BME280;57132;51.972;4.450;2022-09-21T02:10:04;102620.50;;;9.80;100.00
69836;BME280;57132;51.972;4.450;2022-09-21T02:12:31;102618.69;;;9.81;100.00
69836;BME280;57132;51.972;4.450;2022-09-21T02:14:57;102618.69;;;9.81;100.00
69836;BME280;57132;51.972;4.450;2022-09-21T02:17:40;102617.84;;;9.80;100.00
69836;BME280;57132;51.972;4.450;2022-09-21T02:20:29;102620.47;;;9.82;100.00
69836;BME280;57132;51.972;4.450;2022-09-21T02:23:01;102627.53;;;9.83;100.00
69836;BME280;57132;51.972;4.450;2022-09-21T02:27:54;102632.66;;;9.88;100.00
69836;BME280;57132;51.972;4.450;2022-09-21T02:30:23;102632.50;;;9.92;100.00
69836;BME280;57132;51.972;4.450;2022-09-21T02:35:47;102635.78;;;9.99;100.00
69836;BME280;57132;51.972;4.450;2022-09-21T02:40:59;102626.75;;;10.03;100.00
69836;BME280;57132;51.972;4.450;2022-09-21T02:43:32;102630.28;;;10.03;100.00
69836;BME280;57132;51.972;4.450;2022-09-21T02:46:03;102626.66;;;10.04;100.00
69836;BME280;57132;51.972;4.450;2022-09-21T02:48:36;102625.81;;;10.04;100.00
69836;BME280;57132;51.972;4.450;2022-09-21T02:51:04;102628.47;;;10.04;100.00
69836;BME280;57132;51.972;4.450;2022-09-21T02:53:32;102632.06;;;10.03;100.00
69836;BME280;57132;51.972;4.450;2022-09-21T02:56:00;102625.88;;;10.02;100.00
69836;BME280;57132;51.972;4.450;2022-09-21T02:58:31;102630.28;;;10.03;100.00
69836;BME280;57132;51.972;4.450;2022-09-21T03:00:57;102630.34;;;10.02;100.00
69836;BME280;57132;51.972;4.450;2022-09-21T03:03:23;102623.38;;;9.98;100.00
69836;BME280;57132;51.972;4.450;2022-09-21T03:05:51;102629.72;;;9.95;100.00
69836;BME280;57132;51.972;4.450;2022-09-21T03:08:17;102624.47;;;9.92;100.00
69836;BME280;57132;51.972;4.450;2022-09-21T03:10:42;102629.81;;;9.92;100.00
69836;BME280;57132;51.972;4.450;2022-09-21T03:13:10;102629.06;;;9.89;100.00
69836;BME280;57132;51.972;4.450;2022-09-21T03:15:42;102635.34;;;9.88;100.00
69836;BME280;57132;51.972;4.450;2022-09-21T03:18:08;102624.75;;;9.86;100.00
69836;BME280;57132;51.972;4.450;2022-09-21T03:20:34;102636.38;;;9.83;100.00
69836;BME280;57132;51.972;4.450;2022-09-21T03:22:59;102626.69;;;9.81;100.00
69836;BME280;57132;51.972;4.450;2022-09-21T03:25:25;102635.75;;;9.77;100.00
69836;BME280;57132;51.972;4.450;2022-09-21T03:27:51;102625.25;;;9.72;100.00
69836;BME280;57132;51.972;4.450;2022-09-21T03:30:22;102632.47;;;9.70;100.00
69836;BME280;57132;51.972;4.450;2022-09-21T03:32:53;102631.81;;;9.64;100.00
69836;BME280;57132;51.972;4.450;2022-09-21T03:35:20;102636.47;;;9.58;100.00
69836;BME280;57132;51.972;4.450;2022-09-21T03:37:46;102632.19;;;9.54;100.00
69836;BME280;57132;51.972;4.450;2022-09-21T03:40:11;102634.09;;;9.51;100.00
69836;BME280;57132;51.972;4.450;2022-09-21T03:42:37;102631.47;;;9.49;100.00
69836;BME280;57132;51.972;4.450;2022-09-21T03:45:03;102631.66;;;9.45;100.00
69836;BME280;57132;51.972;4.450;2022-09-21T03:47:28;102637.84;;;9.45;100.00
69836;BME280;57132;51.972;4.450;2022-09-21T03:49:54;102641.44;;;9.44;100.00
69836;BME280;57132;51.972;4.450;2022-09-21T03:52:19;102636.97;;;9.45;100.00
69836;BME280;57132;51.972;4.450;2022-09-21T03:54:44;102641.44;;;9.44;100.00
69836;BME280;57132;51.972;4.450;2022-09-21T03:57:12;102639.63;;;9.45;100.00
69836;BME280;57132;51.972;4.450;2022-09-21T03:59:38;102639.63;;;9.45;100.00
69836;BME280;57132;51.972;4.450;2022-09-21T04:02:06;102633.44;;;9.44;100.00
69836;BME280;57132;51.972;4.450;2022-09-21T04:04:31;102634.38;;;9.43;100.00
69836;BME280;57132;51.972;4.450;2022-09-21T04:06:57;102636.19;;;9.43;100.00
69836;BME280;57132;51.972;4.450;2022-09-21T04:09:22;102634.41;;;9.42;100.00
69836;BME280;57132;51.972;4.450;2022-09-21T04:11:47;102634.50;;;9.40;100.00
69836;BME280;57132;51.972;4.450;2022-09-21T04:14:13;102637.22;;;9.39;100.00
69836;BME280;57132;51.972;4.450;2022-09-21T04:16:38;102633.91;;;9.32;100.00
69836;BME280;57132;51.972;4.450;2022-09-21T04:19:04;102632.28;;;9.28;100.00
69836;BME280;57132;51.972;4.450;2022-09-21T04:21:29;102625.25;;;9.25;100.00
69836;BME280;57132;51.972;4.450;2022-09-21T04:23:54;102630.66;;;9.24;100.00
69836;BME280;57132;51.972;4.450;2022-09-21T04:26:25;102633.34;;;9.22;100.00
69836;BME280;57132;51.972;4.450;2022-09-21T04:28:51;102639.78;;;9.17;100.00
69836;BME280;57132;51.972;4.450;2022-09-21T04:31:17;102631.97;;;9.12;100.00
69836;BME280;57132;51.972;4.450;2022-09-21T04:33:42;102640.06;;;9.09;100.00
69836;BME280;57132;51.972;4.450;2022-09-21T04:36:07;102630.38;;;9.06;100.00
69836;BME280;57132;51.972;4.450;2022-09-21T04:38:33;102628.72;;;9.04;100.00
69836;BME280;57132;51.972;4.450;2022-09-21T04:40:58;102639.47;;;9.01;100.00
69836;BME280;57132;51.972;4.450;2022-09-21T04:43:23;102636.97;;;8.96;100.00
69836;BME280;57132;51.972;4.450;2022-09-21T04:45:49;102632.72;;;8.91;100.00
69836;BME280;57132;51.972;4.450;2022-09-21T04:48:14;102630.97;;;8.90;100.00
69836;BME280;57132;51.972;4.450;2022-09-21T04:50:39;102636.38;;;8.88;100.00
69836;BME280;57132;51.972;4.450;2022-09-21T04:53:05;102643.50;;;8.88;100.00
69836;BME280;57132;51.972;4.450;2022-09-21T04:55:30;102639.03;;;8.88;100.00
69836;BME280;57132;51.972;4.450;2022-09-21T04:57:56;102644.34;;;8.88;100.00
69836;BME280;57132;51.972;4.450;2022-09-21T05:00:21;102638.03;;;8.91;100.00
69836;BME280;57132;51.972;4.450;2022-09-21T05:02:46;102637.06;;;8.93;100.00
69836;BME280;57132;51.972;4.450;2022-09-21T05:05:11;102638.78;;;8.94;100.00
69836;BME280;57132;51.972;4.450;2022-09-21T05:07:37;102634.34;;;8.95;100.00
69836;BME280;57132;51.972;4.450;2022-09-21T05:10:02;102632.56;;;8.95;100.00
69836;BME280;57132;51.972;4.450;2022-09-21T05:12:28;102637.00;;;8.95;100.00
69836;BME280;57132;51.972;4.450;2022-09-21T05:14:54;102638.88;;;8.93;100.00
69836;BME280;57132;51.972;4.450;2022-09-21T05:17:20;102637.06;;;8.93;100.00
69836;BME280;57132;51.972;4.450;2022-09-21T05:19:46;102637.06;;;8.93;100.00
69836;BME280;57132;51.972;4.450;2022-09-21T05:22:12;102635.44;;;8.89;100.00
69836;BME280;57132;51.972;4.450;2022-09-21T05:24:37;102640.06;;;8.84;100.00
69836;BME280;57132;51.972;4.450;2022-09-21T05:27:02;102645.41;;;8.82;100.00
69836;BME280;57132;51.972;4.450;2022-09-21T05:29:28;102641.03;;;8.81;100.00
69836;BME280;57132;51.972;4.450;2022-09-21T05:39:48;102644.25;;;8.91;100.00
69836;BME280;57132;51.972;4.450;2022-09-21T05:42:21;102638.88;;;8.93;100.00
69836;BME280;57132;51.972;4.450;2022-09-21T05:52:48;102652.16;;;9.18;100.00
69836;BME280;57132;51.972;4.450;2022-09-21T05:55:26;102651.91;;;9.25;100.00
69836;BME280;57132;51.972;4.450;2022-09-21T06:01:14;102654.84;;;9.43;100.00
69836;BME280;57132;51.972;4.450;2022-09-21T06:03:29;102655.34;;;9.52;100.00
69836;BME280;57132;51.972;4.450;2022-09-21T06:05:55;102660.41;;;9.60;100.00
69836;BME280;57132;51.972;4.450;2022-09-21T06:08:21;102663.72;;;9.67;100.00
69836;BME280;57132;51.972;4.450;2022-09-21T06:10:46;102660.78;;;9.73;100.00
69836;BME280;57132;51.972;4.450;2022-09-21T06:13:12;102662.38;;;9.78;100.00
69836;BME280;57132;51.972;4.450;2022-09-21T06:15:37;102662.19;;;9.83;100.00
69836;BME280;57132;51.972;4.450;2022-09-21T06:18:03;102667.16;;;9.92;100.00
69836;BME280;57132;51.972;4.450;2022-09-21T06:20:29;102668.78;;;9.96;100.00
69836;BME280;57132;51.972;4.450;2022-09-21T06:22:59;102669.66;;;9.97;100.00
69836;BME280;57132;51.972;4.450;2022-09-21T06:25:49;102666.00;;;9.99;100.00
69836;BME280;57132;51.972;4.450;2022-09-21T06:28:15;102665.81;;;10.04;100.00
69836;BME280;57132;51.972;4.450;2022-09-21T06:30:40;102664.75;;;10.08;100.00
69836;BME280;57132;51.972;4.450;2022-09-21T06:33:07;102669.16;;;10.09;100.00
69836;BME280;57132;51.972;4.450;2022-09-21T06:35:32;102657.41;;;10.15;100.00
69836;BME280;57132;51.972;4.450;2022-09-21T06:38:02;102666.09;;;10.20;100.00
69836;BME280;57132;51.972;4.450;2022-09-21T06:40:27;102667.34;;;10.33;100.00
69836;BME280;57132;51.972;4.450;2022-09-21T06:42:56;102675.03;;;10.41;100.00
69836;BME280;57132;51.972;4.450;2022-09-21T06:45:22;102675.47;;;10.52;100.00
69836;BME280;57132;51.972;4.450;2022-09-21T06:47:47;102673.63;;;10.54;100.00
69836;BME280;57132;51.972;4.450;2022-09-21T06:50:13;102672.50;;;10.59;100.00
69836;BME280;57132;51.972;4.450;2022-09-21T06:52:38;102670.56;;;10.63;100.00
69836;BME280;57132;51.972;4.450;2022-09-21T06:55:04;102674.09;;;10.64;100.00
69836;BME280;57132;51.972;4.450;2022-09-21T06:57:30;102669.31;;;10.72;100.00
69836;BME280;57132;51.972;4.450;2022-09-21T06:59:55;102673.38;;;10.80;100.00
69836;BME280;57132;51.972;4.450;2022-09-21T07:02:20;102675.94;;;10.83;100.00
69836;BME280;57132;51.972;4.450;2022-09-21T07:04:46;102682.97;;;10.86;100.00
69836;BME280;57132;51.972;4.450;2022-09-21T07:07:11;102683.09;;;10.83;100.00
69836;BME280;57132;51.972;4.450;2022-09-21T07:09:36;102682.69;;;10.92;100.00
69836;BME280;57132;51.972;4.450;2022-09-21T07:12:01;102679.09;;;10.93;100.00
69836;BME280;57132;51.972;4.450;2022-09-21T07:14:31;102682.97;;;11.06;100.00
69836;BME280;57132;51.972;4.450;2022-09-21T07:16:56;102680.75;;;11.16;100.00
69836;BME280;57132;51.972;4.450;2022-09-21T07:19:21;102680.16;;;11.30;100.00
69836;BME280;57132;51.972;4.450;2022-09-21T07:21:47;102677.94;;;11.40;100.00
69836;BME280;57132;51.972;4.450;2022-09-21T07:24:12;102673.84;;;11.51;100.00
69836;BME280;57132;51.972;4.450;2022-09-21T07:26:39;102682.38;;;11.60;100.00
69836;BME280;57132;51.972;4.450;2022-09-21T07:29:04;102679.94;;;11.74;100.00
69836;BME280;57132;51.972;4.450;2022-09-21T07:31:29;102681.13;;;11.87;100.00
69836;BME280;57132;51.972;4.450;2022-09-21T07:33:55;102689.53;;;11.98;100.00
69836;BME280;57132;51.972;4.450;2022-09-21T07:36:21;102678.97;;;12.14;100.00
69836;BME280;57132;51.972;4.450;2022-09-21T07:38:46;102685.41;;;12.29;100.00
69836;BME280;57132;51.972;4.450;2022-09-21T07:41:15;102677.00;;;12.37;98.90
69836;BME280;57132;51.972;4.450;2022-09-21T07:43:43;102684.19;;;12.53;96.90
69836;BME280;57132;51.972;4.450;2022-09-21T07:46:09;102680.97;;;12.64;95.33
69836;BME280;57132;51.972;4.450;2022-09-21T07:48:35;102679.97;;;12.84;95.06
69836;BME280;57132;51.972;4.450;2022-09-21T07:51:04;102688.25;;;12.97;94.73
69836;BME280;57132;51.972;4.450;2022-09-21T07:53:30;102684.16;;;13.07;93.54
69836;BME280;57132;51.972;4.450;2022-09-21T07:56:06;102692.03;;;13.10;90.31
69836;BME280;57132;51.972;4.450;2022-09-21T07:58:31;102684.97;;;13.26;89.19
69836;BME280;57132;51.972;4.450;2022-09-21T08:01:15;102685.88;;;13.43;88.86
69836;BME280;57132;51.972;4.450;2022-09-21T08:04:04;102678.03;;;13.56;88.69
69836;BME280;57132;51.972;4.450;2022-09-21T08:06:30;102690.09;;;13.64;87.48
69836;BME280;57132;51.972;4.450;2022-09-21T08:08:57;102688.88;;;13.70;83.24
69836;BME280;57132;51.972;4.450;2022-09-21T08:11:22;102683.28;;;13.74;82.04
69836;BME280;57132;51.972;4.450;2022-09-21T08:13:50;102688.22;;;13.82;80.05
69836;BME280;57132;51.972;4.450;2022-09-21T08:16:19;102685.63;;;13.96;80.24
69836;BME280;57132;51.972;4.450;2022-09-21T08:18:49;102683.56;;;14.17;81.10
69836;BME280;57132;51.972;4.450;2022-09-21T08:21:15;102688.16;;;14.15;78.11
69836;BME280;57132;51.972;4.450;2022-09-21T08:23:41;102691.72;;;14.32;77.28
69836;BME280;57132;51.972;4.450;2022-09-21T08:26:07;102697.69;;;14.52;76.76
69836;BME280;57132;51.972;4.450;2022-09-21T08:28:33;102689.94;;;14.78;76.74
69836;BME280;57132;51.972;4.450;2022-09-21T08:31:00;102696.28;;;14.77;74.08
69836;BME280;57132;51.972;4.450;2022-09-21T08:33:25;102693.22;;;14.83;72.46
69836;BME280;57132;51.972;4.450;2022-09-21T08:35:52;102693.63;;;15.21;73.36
69836;BME280;57132;51.972;4.450;2022-09-21T08:38:17;102696.91;;;15.41;72.83
69836;BME280;57132;51.972;4.450;2022-09-21T08:40:42;102693.53;;;15.52;72.47
69836;BME280;57132;51.972;4.450;2022-09-21T08:43:09;102700.09;;;15.62;71.72
69836;BME280;57132;51.972;4.450;2022-09-21T08:45:41;102697.19;;;15.50;69.16
69836;BME280;57132;51.972;4.450;2022-09-21T08:48:12;102700.09;;;15.62;69.55
69836;BME280;57132;51.972;4.450;2022-09-21T08:53:08;102696.44;;;16.06;69.60
69836;BME280;57132;51.972;4.450;2022-09-21T08:55:36;102702.78;;;16.46;67.64
69836;BME280;57132;51.972;4.450;2022-09-21T08:58:01;102708.56;;;16.81;66.14
69836;BME280;57132;51.972;4.450;2022-09-21T09:00:26;102710.22;;;16.96;65.21
69836;BME280;57132;51.972;4.450;2022-09-21T09:03:10;102711.06;;;16.97;65.24
69836;BME280;57132;51.972;4.450;2022-09-21T09:08:23;102719.69;;;16.89;63.96
69836;BME280;57132;51.972;4.450;2022-09-21T09:10:55;102706.34;;;17.13;63.07
69836;BME280;57132;51.972;4.450;2022-09-21T09:13:29;102730.50;;;17.02;61.47
69836;BME280;57132;51.972;4.450;2022-09-21T09:20:52;102711.69;;;17.66;57.94
69836;BME280;57132;51.972;4.450;2022-09-21T09:25:46;102717.31;;;17.76;58.16
69836;BME280;57132;51.972;4.450;2022-09-21T09:30:42;102714.28;;;17.55;56.12
69836;BME280;57132;51.972;4.450;2022-09-21T09:33:13;102720.63;;;17.54;57.55
69836;BME280;57132;51.972;4.450;2022-09-21T09:35:45;102713.72;;;17.37;54.79
69836;BME280;57132;51.972;4.450;2022-09-21T09:38:20;102711.31;;;17.07;54.86
69836;BME280;57132;51.972;4.450;2022-09-21T09:40:55;102717.09;;;16.88;56.40
69836;BME280;57132;51.972;4.450;2022-09-21T09:45:54;102721.50;;;17.29;58.84
69836;BME280;57132;51.972;4.450;2022-09-21T09:48:43;102717.72;;;17.31;58.04
69836;BME280;57132;51.972;4.450;2022-09-21T09:51:13;102708.44;;;17.48;55.60
69836;BME280;57132;51.972;4.450;2022-09-21T09:53:38;102715.34;;;17.65;55.86
69836;BME280;57132;51.972;4.450;2022-09-21T09:56:05;102711.44;;;17.69;54.11
69836;BME280;57132;51.972;4.450;2022-09-21T09:58:42;102715.78;;;17.84;54.32
69836;BME280;57132;51.972;4.450;2022-09-21T10:01:08;102713.31;;;17.81;52.12
69836;BME280;57132;51.972;4.450;2022-09-21T10:03:44;102710.84;;;17.78;54.76
69836;BME280;57132;51.972;4.450;2022-09-21T10:06:31;102710.06;;;17.89;54.53
69836;BME280;57132;51.972;4.450;2022-09-21T10:08:57;102718.16;;;17.89;56.20
69836;BME280;57132;51.972;4.450;2022-09-21T10:11:22;102707.59;;;17.86;54.20
69836;BME280;57132;51.972;4.450;2022-09-21T10:14:05;102716.00;;;17.94;50.28
69836;BME280;57132;51.972;4.450;2022-09-21T10:16:30;102706.50;;;17.88;48.88
69836;BME280;57132;51.972;4.450;2022-09-21T10:18:56;102707.59;;;18.23;53.35
69836;BME280;57132;51.972;4.450;2022-09-21T10:24:06;102709.28;;;18.60;50.73
69836;BME280;57132;51.972;4.450;2022-09-21T10:26:46;102709.25;;;18.49;47.60
69836;BME280;57132;51.972;4.450;2022-09-21T10:29:32;102701.41;;;18.33;46.87
69836;BME280;57132;51.972;4.450;2022-09-21T10:32:02;102701.34;;;18.22;46.78
69836;BME280;57132;51.972;4.450;2022-09-21T10:34:32;102701.47;;;18.08;47.53
69836;BME280;57132;51.972;4.450;2022-09-21T10:36:58;102700.09;;;18.02;44.59
69836;BME280;57132;51.972;4.450;2022-09-21T10:39:28;102697.31;;;17.91;45.48
69836;BME280;57132;51.972;4.450;2022-09-21T10:44:20;102699.63;;;18.08;49.36
69836;BME280;57132;51.972;4.450;2022-09-21T10:46:46;102694.28;;;17.96;49.05
69836;BME280;57132;51.972;4.450;2022-09-21T10:49:14;102687.66;;;18.00;49.70
69836;BME280;57132;51.972;4.450;2022-09-21T10:51:40;102689.94;;;18.06;50.38
69836;BME280;57132;51.972;4.450;2022-09-21T10:54:09;102689.69;;;18.09;51.90
69836;BME280;57132;51.972;4.450;2022-09-21T10:56:35;102692.50;;;18.07;50.50
69836;BME280;57132;51.972;4.450;2022-09-21T11:01:45;102693.06;;;18.84;50.45
69836;BME280;57132;51.972;4.450;2022-09-21T11:04:11;102689.28;;;18.87;51.24
69836;BME280;57132;51.972;4.450;2022-09-21T11:06:44;102682.41;;;18.94;49.59
69836;BME280;57132;51.972;4.450;2022-09-21T11:09:17;102683.00;;;18.86;48.61
69836;BME280;57132;51.972;4.450;2022-09-21T11:19:41;102688.19;;;18.65;46.66
69836;BME280;57132;51.972;4.450;2022-09-21T11:27:12;102678.94;;;17.58;49.22
69836;BME280;57132;51.972;4.450;2022-09-21T11:44:52;102669.44;;;17.65;50.02
69836;BME280;57132;51.972;4.450;2022-09-21T11:52:36;102665.72;;;18.52;48.30
69836;BME280;57132;51.972;4.450;2022-09-21T11:55:09;102666.59;;;18.53;44.80
69836;BME280;57132;51.972;4.450;2022-09-21T12:00:55;102655.59;;;17.95;49.87
69836;BME280;57132;51.972;4.450;2022-09-21T12:03:46;102657.88;;;17.88;49.19
69836;BME280;57132;51.972;4.450;2022-09-21T12:06:36;102658.38;;;18.30;50.20
69836;BME280;57132;51.972;4.450;2022-09-21T12:09:13;102661.50;;;18.00;50.97
69836;BME280;57132;51.972;4.450;2022-09-21T12:14:40;102640.66;;;18.02;51.85
69836;BME280;57132;51.972;4.450;2022-09-21T12:19:39;102643.75;;;18.33;52.59
69836;BME280;57132;51.972;4.450;2022-09-21T12:24:38;102648.22;;;18.45;50.05
69836;BME280;57132;51.972;4.450;2022-09-21T12:27:26;102641.25;;;18.18;47.10
69836;BME280;57132;51.972;4.450;2022-09-21T12:29:54;102646.91;;;18.03;48.27
69836;BME280;57132;51.972;4.450;2022-09-21T12:35:03;102647.19;;;17.87;48.80
69836;BME280;57132;51.972;4.450;2022-09-21T12:37:36;102640.63;;;17.78;49.37
69836;BME280;57132;51.972;4.450;2022-09-21T12:40:16;102647.59;;;17.68;50.89
69836;BME280;57132;51.972;4.450;2022-09-21T12:53:00;102635.84;;;17.56;49.55
69836;BME280;57132;51.972;4.450;2022-09-21T12:55:32;102630.34;;;17.58;50.72
69836;BME280;57132;51.972;4.450;2022-09-21T12:58:18;102632.97;;;17.47;50.26
69836;BME280;57132;51.972;4.450;2022-09-21T13:00:59;102628.50;;;17.45;48.86
69836;BME280;57132;51.972;4.450;2022-09-21T13:03:31;102624.44;;;17.40;49.72
69836;BME280;57132;51.972;4.450;2022-09-21T13:08:31;102620.75;;;17.28;47.50
69836;BME280;57132;51.972;4.450;2022-09-21T13:11:00;102621.44;;;17.19;49.63
69836;BME280;57132;51.972;4.450;2022-09-21T13:16:21;102619.16;;;17.13;50.28
69836;BME280;57132;51.972;4.450;2022-09-21T13:18:47;102609.53;;;17.09;50.81
69836;BME280;57132;51.972;4.450;2022-09-21T13:21:19;102610.50;;;17.08;52.54
69836;BME280;57132;51.972;4.450;2022-09-21T13:24:02;102607.59;;;17.11;55.00
69836;BME280;57132;51.972;4.450;2022-09-21T13:26:32;102610.72;;;17.17;51.25
69836;BME280;57132;51.972;4.450;2022-09-21T13:36:32;102604.91;;;17.11;50.14
69836;BME280;57132;51.972;4.450;2022-09-21T13:41:32;102603.06;;;16.99;52.51
69836;BME280;57132;51.972;4.450;2022-09-21T13:51:34;102601.66;;;16.80;52.41
69836;BME280;57132;51.972;4.450;2022-09-21T13:54:13;102599.69;;;16.82;51.41
69836;BME280;57132;51.972;4.450;2022-09-21T13:56:38;102593.03;;;16.75;51.10
69836;BME280;57132;51.972;4.450;2022-09-21T13:59:11;102591.56;;;16.69;51.49
69836;BME280;57132;51.972;4.450;2022-09-21T14:01:41;102598.34;;;16.62;57.87
69836;BME280;57132;51.972;4.450;2022-09-21T14:04:19;102584.97;;;16.61;53.82
69836;BME280;57132;51.972;4.450;2022-09-21T14:06:47;102586.50;;;16.65;56.45
69836;BME280;57132;51.972;4.450;2022-09-21T14:09:21;102588.97;;;16.68;57.92
69836;BME280;57132;51.972;4.450;2022-09-21T14:11:52;102581.63;;;16.70;58.48
69836;BME280;57132;51.972;4.450;2022-09-21T14:14:25;102576.06;;;16.73;55.90
69836;BME280;57132;51.972;4.450;2022-09-21T14:16:52;102575.50;;;16.68;54.49
69836;BME280;57132;51.972;4.450;2022-09-21T14:24:48;102578.34;;;17.05;54.81
69836;BME280;57132;51.972;4.450;2022-09-21T14:30:13;102572.50;;;17.24;50.75
69836;BME280;57132;51.972;4.450;2022-09-21T14:35:24;102570.56;;;17.38;50.63
69836;BME280;57132;51.972;4.450;2022-09-21T14:37:54;102573.00;;;17.41;50.21
69836;BME280;57132;51.972;4.450;2022-09-21T14:40:36;102571.16;;;17.42;48.17
69836;BME280;57132;51.972;4.450;2022-09-21T14:43:05;102570.88;;;17.34;50.06
69836;BME280;57132;51.972;4.450;2022-09-21T14:53:15;102561.34;;;17.41;49.64
69836;BME280;57132;51.972;4.450;2022-09-21T14:55:57;102570.78;;;17.35;49.52
69836;BME280;57132;51.972;4.450;2022-09-21T15:01:13;102558.25;;;17.34;48.94
69836;BME280;57132;51.972;4.450;2022-09-21T15:06:15;102550.78;;;17.38;51.56
69836;BME280;57132;51.972;4.450;2022-09-21T15:12:26;102538.47;;;17.47;50.60
69836;BME280;57132;51.972;4.450;2022-09-21T15:17:26;102536.88;;;17.31;51.38
69836;BME280;57132;51.972;4.450;2022-09-21T15:19:56;102535.03;;;17.32;50.72
69836;BME280;57132;51.972;4.450;2022-09-21T15:22:23;102527.28;;;17.14;51.17
69836;BME280;57132;51.972;4.450;2022-09-21T15:24:56;102534.84;;;17.09;51.63
69836;BME280;57132;51.972;4.450;2022-09-21T15:27:23;102525.25;;;17.05;51.60
69836;BME280;57132;51.972;4.450;2022-09-21T15:29:50;102519.75;;;17.07;52.35
69836;BME280;57132;51.972;4.450;2022-09-21T15:32:34;102524.72;;;17.00;55.45
69836;BME280;57132;51.972;4.450;2022-09-21T15:35:01;102530.31;;;16.97;51.43
69836;BME280;57132;51.972;4.450;2022-09-21T15:37:27;102522.13;;;16.86;51.75
69836;BME280;57132;51.972;4.450;2022-09-21T15:39:59;102524.50;;;16.78;50.53
69836;BME280;57132;51.972;4.450;2022-09-21T15:42:25;102523.53;;;16.79;50.07
69836;BME280;57132;51.972;4.450;2022-09-21T15:44:53;102523.84;;;16.74;49.90
69836;BME280;57132;51.972;4.450;2022-09-21T15:47:30;102524.81;;;16.60;52.74
69836;BME280;57132;51.972;4.450;2022-09-21T15:49:56;102520.91;;;16.52;50.72
69836;BME280;57132;51.972;4.450;2022-09-21T15:52:27;102520.00;;;16.38;49.41
69836;BME280;57132;51.972;4.450;2022-09-21T15:54:58;102525.50;;;16.24;53.97